Time;durP1;ratioP1;P1;durP2;ratioP2;P2;SDS_P1;SDS_P2;PMS_P1;PMS_P2;Temp;Humidity;BMP_temperature;BMP_pressure;BME280_temperature;BME280_humidity;BME280_pressure;Samples;Min_cycle;Max_cycle;Signal;HPM_P1;HPM_P2
2023/08/05 00:00:39;;;;;;;9.55;4.43;;;;;;;14.05;100.00;101784.44;6102123;19;20015;-69
2023/08/05 00:02:46;;;;;;;10.75;5.13;;;;;;;14.11;100.00;101785.97;6103920;19;20014;-69
2023/08/05 00:04:53;;;;;;;11.18;4.82;;;;;;;14.13;100.00;101784.97;6103599;19;20042;-71
2023/08/05 00:06:58;;;;;;;9.60;4.43;;;;;;;14.12;100.00;101791.19;6100025;19;20007;-68
2023/08/05 00:09:03;;;;;;;10.20;4.43;;;;;;;14.14;100.00;101785.84;6098630;19;20010;-71
2023/08/05 00:11:08;;;;;;;11.70;5.03;;;;;;;14.16;100.00;101784.84;6102881;19;20405;-69
2023/08/05 00:13:13;;;;;;;10.48;4.55;;;;;;;14.20;100.00;101785.59;6099720;19;20010;-71
2023/08/05 00:15:19;;;;;;;9.63;4.90;;;;;;;14.21;100.00;101782.03;6105755;19;20030;-71
2023/08/05 00:17:24;;;;;;;9.95;4.57;;;;;;;14.24;100.00;101782.78;6102339;19;20017;-69
2023/08/05 00:19:34;;;;;;;11.02;4.47;;;;;;;14.28;100.00;101772.94;6105224;19;20007;-69
2023/08/05 00:21:39;;;;;;;8.75;4.10;;;;;;;14.28;100.00;101776.44;6102057;19;20014;-70
2023/08/05 00:23:46;;;;;;;9.57;4.25;;;;;;;14.32;100.00;101771.00;6096502;19;20475;-70
2023/08/05 00:25:51;;;;;;;9.27;3.83;;;;;;;14.31;100.00;101775.44;6097930;19;20941;-69
2023/08/05 00:27:57;;;;;;;9.30;4.25;;;;;;;14.33;100.00;101772.75;6101536;19;20481;-70
2023/08/05 00:30:00;;;;;;;9.68;4.30;;;;;;;14.39;100.00;101769.84;6097716;19;20114;-70
2023/08/05 00:32:07;;;;;;;10.10;4.43;;;;;;;14.42;100.00;101762.63;6098783;19;20423;-70
2023/08/05 00:34:12;;;;;;;11.02;4.75;;;;;;;14.44;100.00;101763.44;6102144;19;20640;-70
2023/08/05 00:36:19;;;;;;;9.75;4.82;;;;;;;14.45;100.00;101756.34;6099917;19;20022;-70
2023/08/05 00:38:26;;;;;;;13.65;6.50;;;;;;;14.46;100.00;101753.66;6099095;19;20071;-70
2023/08/05 00:40:31;;;;;;;9.07;4.43;;;;;;;14.47;100.00;101747.44;6100779;19;20006;-70
2023/08/05 00:42:36;;;;;;;10.63;4.47;;;;;;;14.50;100.00;101746.44;6103429;19;20010;-69
2023/08/05 00:44:41;;;;;;;8.05;4.03;;;;;;;14.55;100.00;101749.78;6101670;19;20405;-70
2023/08/05 00:46:43;;;;;;;10.38;4.95;;;;;;;14.60;100.00;101745.16;6101170;19;20007;-70
2023/08/05 00:48:51;;;;;;;8.43;4.90;;;;;;;14.61;100.00;101741.59;6102267;19;20003;-71
2023/08/05 00:50:58;;;;;;;12.50;4.68;;;;;;;14.62;100.00;101743.31;6101801;19;20777;-70
2023/08/05 00:53:09;;;;;;;13.68;4.30;;;;;;;14.61;100.00;101744.25;6100453;19;20415;-69
2023/08/05 00:55:14;;;;;;;9.30;3.80;;;;;;;14.65;100.00;101744.97;6100801;19;20018;-71
2023/08/05 00:57:21;;;;;;;10.50;4.85;;;;;;;14.64;100.00;101748.53;6096193;19;20022;-69
2023/08/05 00:59:26;;;;;;;10.73;4.30;;;;;;;14.63;100.00;101736.22;6095581;19;20006;-71
2023/08/05 01:01:34;;;;;;;9.82;4.10;;;;;;;14.60;100.00;101752.25;6097415;19;20460;-70
2023/08/05 01:03:39;;;;;;;11.35;5.18;;;;;;;14.62;100.00;101748.59;6100337;19;20632;-70
2023/08/05 01:05:45;;;;;;;11.73;4.72;;;;;;;14.66;100.00;101749.31;6097333;19;20018;-69
2023/08/05 01:07:48;;;;;;;10.75;5.25;;;;;;;14.70;100.00;101759.72;6100937;19;20079;-70
2023/08/05 01:09:55;;;;;;;11.23;5.68;;;;;;;14.73;100.00;101755.22;6099040;19;20034;-70
2023/08/05 01:12:00;;;;;;;14.88;5.82;;;;;;;14.77;100.00;101754.16;6096652;19;20010;-70
2023/08/05 01:14:05;;;;;;;9.13;5.15;;;;;;;14.78;100.00;101743.50;6093977;19;20010;-70
2023/08/05 01:16:09;;;;;;;10.60;5.15;;;;;;;14.80;100.00;101746.97;6097958;19;20033;-70
2023/08/05 01:18:18;;;;;;;10.68;4.82;;;;;;;14.82;100.00;101739.78;6103162;19;20034;-70
2023/08/05 01:20:26;;;;;;;11.75;4.85;;;;;;;14.81;100.00;101742.50;6098428;19;19998;-70
2023/08/05 01:22:39;;;;;;;10.73;4.82;;;;;;;14.82;100.00;101738.94;6104422;19;20143;-70
2023/08/05 01:24:51;;;;;;;9.60;4.20;;;;;;;14.82;100.00;101739.78;6102159;19;20577;-71
2023/08/05 01:26:57;;;;;;;8.77;4.45;;;;;;;14.82;100.00;101731.84;6101405;19;20026;-71
2023/08/05 01:29:02;;;;;;;8.02;4.13;;;;;;;14.84;100.00;101740.59;6103733;19;20078;-71
2023/08/05 01:31:12;;;;;;;13.00;4.78;;;;;;;14.85;100.00;101728.22;6095420;19;20016;-70
2023/08/05 01:33:19;;;;;;;9.88;4.15;;;;;;;14.89;100.00;101728.00;6101833;19;20098;-70
2023/08/05 01:35:25;;;;;;;8.35;4.03;;;;;;;14.90;100.00;101728.88;6097299;19;20018;-70
2023/08/05 01:37:30;;;;;;;10.02;4.13;;;;;;;14.89;100.00;101728.00;6098153;19;20027;-69
2023/08/05 01:39:32;;;;;;;8.10;3.35;;;;;;;14.91;100.00;101726.16;6097441;19;20019;-69
2023/08/05 01:41:37;;;;;;;9.38;4.25;;;;;;;14.87;100.00;101735.16;6091550;19;20010;-69
2023/08/05 01:43:47;;;;;;;7.68;3.88;;;;;;;14.90;100.00;101726.22;6100756;19;20030;-69
2023/08/05 01:45:52;;;;;;;8.85;4.03;;;;;;;14.92;100.00;101733.16;6099413;19;20534;-70
2023/08/05 01:47:58;;;;;;;8.88;4.38;;;;;;;14.96;100.00;101727.75;6100546;19;20006;-69
2023/08/05 01:50:03;;;;;;;8.52;4.15;;;;;;;14.99;100.00;101722.31;6099051;19;20497;-69
2023/08/05 01:52:09;;;;;;;8.90;4.05;;;;;;;15.00;100.00;101713.44;6097470;19;20556;-69
2023/08/05 01:54:15;;;;;;;7.82;4.43;;;;;;;15.00;100.00;101716.94;6096702;19;20038;-70
2023/08/05 01:56:19;;;;;;;8.40;4.10;;;;;;;15.01;100.00;101712.50;6094262;19;20022;-70
2023/08/05 01:58:24;;;;;;;12.38;4.88;;;;;;;15.03;100.00;101706.22;6100019;19;20006;-72
2023/08/05 02:00:32;;;;;;;7.82;4.70;;;;;;;14.98;100.00;101708.25;6096563;19;19999;-71
2023/08/05 02:02:36;;;;;;;11.15;4.45;;;;;;;15.00;100.00;101709.00;6098682;19;20293;-69
2023/08/05 02:04:42;;;;;;;8.07;3.85;;;;;;;14.98;100.00;101710.88;6076773;19;20082;-69
2023/08/05 02:06:47;;;;;;;8.48;3.97;;;;;;;14.97;100.00;101708.28;6100528;19;20002;-69
2023/08/05 02:08:52;;;;;;;9.98;4.55;;;;;;;14.95;100.00;101708.34;6105023;19;20519;-69
2023/08/05 02:10:57;;;;;;;10.00;4.13;;;;;;;14.95;100.00;101708.34;6097121;19;19999;-69
2023/08/05 02:13:03;;;;;;;11.70;4.15;;;;;;;14.95;100.00;101705.69;6100171;19;20017;-69
2023/08/05 02:15:09;;;;;;;10.65;4.43;;;;;;;14.95;100.00;101705.69;6104674;19;20010;-70
2023/08/05 02:17:16;;;;;;;7.95;4.32;;;;;;;14.96;100.00;101704.78;6103839;19;20020;-70
2023/08/05 02:19:21;;;;;;;9.43;4.30;;;;;;;14.97;100.00;101703.84;6099993;19;20419;-69
2023/08/05 02:21:26;;;;;;;10.00;4.10;;;;;;;14.96;100.00;101707.44;6103239;19;20010;-69
2023/08/05 02:23:32;;;;;;;6.95;3.17;;;;;;;14.97;100.00;101703.84;6104738;19;20384;-70
2023/08/05 02:25:37;;;;;;;6.72;4.00;;;;;;;14.97;100.00;101689.75;6105588;19;20046;-69
2023/08/05 02:27:41;;;;;;;9.05;4.25;;;;;;;14.92;100.00;101682.88;6106709;19;20035;-70
2023/08/05 02:29:46;;;;;;;11.18;4.10;;;;;;;14.93;100.00;101676.69;6104827;19;20032;-69
2023/08/05 02:31:51;;;;;;;8.90;4.60;;;;;;;14.91;100.00;101673.22;6105280;19;20573;-70
2023/08/05 02:33:59;;;;;;;7.88;4.10;;;;;;;14.87;100.00;101666.34;6103204;19;20479;-69
2023/08/05 02:36:01;;;;;;;8.18;3.95;;;;;;;14.87;100.00;101660.19;6097335;19;20014;-70
2023/08/05 02:38:06;;;;;;;9.68;4.47;;;;;;;14.80;100.00;101661.44;6098734;19;20064;-69
2023/08/05 02:40:13;;;;;;;8.90;4.10;;;;;;;14.81;100.00;101658.69;6104147;19;20017;-71
2023/08/05 02:42:18;;;;;;;7.22;3.78;;;;;;;14.81;100.00;101661.34;6103333;19;20462;-70
2023/08/05 02:44:22;;;;;;;8.73;4.15;;;;;;;14.79;100.00;101651.75;6100236;19;20005;-71
2023/08/05 02:46:28;;;;;;;6.50;3.80;;;;;;;14.77;100.00;101649.19;6103558;19;20420;-70
2023/08/05 02:48:33;;;;;;;10.02;4.07;;;;;;;14.75;100.00;101640.47;6103201;19;20566;-70
2023/08/05 02:50:42;;;;;;;6.97;3.83;;;;;;;14.70;100.00;101648.59;6103589;19;20018;-70
2023/08/05 02:52:47;;;;;;;7.97;4.30;;;;;;;14.67;100.00;101653.19;6093282;19;20043;-70
2023/08/05 02:54:49;;;;;;;8.57;4.13;;;;;;;14.64;100.00;101648.88;6103139;19;20015;-70
2023/08/05 02:56:54;;;;;;;10.90;4.10;;;;;;;14.63;100.00;101630.41;6105236;19;20032;-69
2023/08/05 02:58:59;;;;;;;8.32;4.38;;;;;;;14.59;100.00;101634.16;6102715;19;20044;-70
2023/08/05 03:01:08;;;;;;;11.48;4.43;;;;;;;14.64;100.00;101626.84;6103647;19;20052;-70
2023/08/05 03:03:13;;;;;;;9.90;4.47;;;;;;;14.63;100.00;101627.78;6105203;19;20557;-69
2023/08/05 03:05:19;;;;;;;8.55;4.05;;;;;;;14.61;100.00;101624.34;6106967;19;20011;-71
2023/08/05 03:07:26;;;;;;;9.90;4.05;;;;;;;14.59;100.00;101621.78;6105655;19;20555;-70
2023/08/05 03:09:31;;;;;;;9.32;4.15;;;;;;;14.59;100.00;101618.28;6099608;19;20738;-69
2023/08/05 03:11:36;;;;;;;8.75;3.78;;;;;;;14.58;100.00;101625.31;6099724;19;20023;-69
2023/08/05 03:13:41;;;;;;;7.68;3.63;;;;;;;14.56;100.00;101631.63;6105419;19;20054;-70
2023/08/05 03:15:48;;;;;;;10.23;4.00;;;;;;;14.55;100.00;101629.91;6102740;19;20250;-71
2023/08/05 03:17:55;;;;;;;9.93;4.20;;;;;;;14.56;100.00;101623.69;6094090;19;20670;-69
2023/08/05 03:20:00;;;;;;;8.88;4.05;;;;;;;14.53;100.00;101621.19;6089185;19;20013;-70
2023/08/05 03:22:05;;;;;;;10.15;3.97;;;;;;;14.53;100.00;101608.81;6090861;19;20014;-70
2023/08/05 03:24:17;;;;;;;8.55;3.70;;;;;;;14.52;100.00;101611.50;6088415;19;20339;-70
2023/08/05 03:26:22;;;;;;;9.05;3.90;;;;;;;14.52;100.00;101614.16;6098976;19;20002;-70
2023/08/05 03:28:29;;;;;;;6.90;3.47;;;;;;;14.50;100.00;101619.50;6100768;19;20480;-70
2023/08/05 03:30:34;;;;;;;9.90;4.03;;;;;;;14.47;100.00;101619.63;6099864;19;20033;-69
2023/08/05 03:32:38;;;;;;;10.10;4.68;;;;;;;14.45;100.00;101616.19;6097371;19;20024;-68
2023/08/05 03:34:43;;;;;;;7.50;3.90;;;;;;;14.45;100.00;101605.63;6094524;19;20010;-69
2023/08/05 03:36:49;;;;;;;12.40;4.30;;;;;;;14.45;100.00;101603.81;6095145;19;20491;-69
2023/08/05 03:38:54;;;;;;;7.07;3.47;;;;;;;14.46;100.00;101600.28;6097683;19;20010;-70
2023/08/05 03:41:08;;;;;;;9.77;4.05;;;;;;;14.49;100.00;101599.28;6090617;19;20010;-69
2023/08/05 03:43:12;;;;;;;9.75;4.55;;;;;;;14.54;100.00;101594.66;6095072;19;20078;-69
2023/08/05 03:45:16;;;;;;;9.45;3.78;;;;;;;14.55;100.00;101584.94;6099494;19;20860;-70
2023/08/05 03:47:21;;;;;;;9.77;3.80;;;;;;;14.55;100.00;101579.66;6096598;19;20026;-70
2023/08/05 03:49:24;;;;;;;7.25;4.28;;;;;;;14.52;100.00;101577.13;6100048;19;20007;-70
2023/08/05 03:51:29;;;;;;;8.45;3.75;;;;;;;14.52;100.00;101577.13;6089578;19;20106;-69
2023/08/05 03:53:35;;;;;;;10.40;4.03;;;;;;;14.54;100.00;101567.38;6089125;19;20387;-69
2023/08/05 03:55:40;;;;;;;12.32;4.32;;;;;;;14.66;100.00;101566.78;6090360;19;20011;-70
2023/08/05 03:57:47;;;;;;;12.07;5.22;;;;;;;14.68;100.00;101565.78;6089036;19;20013;-71
2023/08/05 03:59:52;;;;;;;9.38;4.35;;;;;;;14.67;100.00;101565.88;6091766;19;19998;-69
2023/08/05 04:01:58;;;;;;;9.85;4.35;;;;;;;14.57;100.00;101562.78;6089931;19;20428;-69
2023/08/05 04:04:03;;;;;;;9.43;4.72;;;;;;;14.59;100.00;101566.22;6088494;19;20083;-69
2023/08/05 04:06:10;;;;;;;9.30;4.15;;;;;;;14.60;100.00;101561.78;6090221;19;20656;-68
2023/08/05 04:08:15;;;;;;;10.13;4.72;;;;;;;14.57;100.00;101552.22;6082028;19;20098;-71
2023/08/05 04:10:22;;;;;;;11.02;5.22;;;;;;;14.50;100.00;101550.72;6091009;19;20030;-70
2023/08/05 04:12:28;;;;;;;10.35;4.78;;;;;;;14.47;100.00;101541.16;6090944;19;20007;-70
2023/08/05 04:14:37;;;;;;;12.95;5.25;;;;;;;14.48;100.00;101542.00;6090209;19;20018;-70
2023/08/05 04:16:42;;;;;;;11.93;4.57;;;;;;;14.45;100.00;101545.66;6088420;19;24611;-71
2023/08/05 04:18:48;;;;;;;9.68;5.00;;;;;;;14.46;100.00;101544.72;6092032;19;20010;-69
2023/08/05 04:20:55;;;;;;;13.13;5.13;;;;;;;14.47;100.00;101548.22;6087855;19;20014;-70
2023/08/05 04:22:57;;;;;;;10.98;5.22;;;;;;;14.48;100.00;101548.19;6100359;19;20006;-70
2023/08/05 04:25:02;;;;;;;9.00;4.53;;;;;;;14.46;100.00;101542.09;6102283;19;20042;-70
2023/08/05 04:27:07;;;;;;;13.95;5.28;;;;;;;14.42;100.00;101540.50;6102118;19;20509;-70
2023/08/05 04:29:17;;;;;;;12.68;5.65;;;;;;;14.43;100.00;101541.38;6101456;19;20014;-70
2023/08/05 04:31:24;;;;;;;12.45;4.88;;;;;;;14.47;100.00;101535.00;6098566;19;20056;-70
2023/08/05 04:33:32;;;;;;;12.20;5.03;;;;;;;14.48;100.00;101542.88;6101447;19;20010;-71
2023/08/05 04:35:40;;;;;;;11.45;4.78;;;;;;;14.45;100.00;101543.00;6095227;19;20430;-70
2023/08/05 04:37:45;;;;;;;10.60;4.50;;;;;;;14.47;100.00;101535.84;6095765;19;20014;-70
2023/08/05 04:39:47;;;;;;;11.25;4.80;;;;;;;14.52;100.00;101540.09;6100296;19;20094;-71
2023/08/05 04:41:55;;;;;;;;;;;;;;;14.47;100.00;101535.00;6101281;19;20629;-70
2023/08/05 04:44:02;;;;;;;11.88;5.00;;;;;;;14.52;100.00;101518.94;6099826;19;19921;-69
2023/08/05 04:46:07;;;;;;;11.80;5.00;;;;;;;14.52;100.00;101516.28;6101342;19;20007;-69
2023/08/05 04:48:14;;;;;;;12.70;4.43;;;;;;;14.55;100.00;101517.03;6101200;19;20082;-71
2023/08/05 04:50:19;;;;;;;10.45;5.00;;;;;;;14.58;100.00;101518.69;6100813;19;20015;-70
2023/08/05 04:52:25;;;;;;;12.13;5.07;;;;;;;14.56;100.00;101524.06;6097471;19;20031;-69
2023/08/05 04:54:30;;;;;;;11.00;4.60;;;;;;;14.52;100.00;101522.44;6093889;19;20002;-69
2023/08/05 04:56:38;;;;;;;11.48;4.90;;;;;;;14.51;100.00;101520.72;6095982;19;20246;-70
2023/08/05 04:58:56;;;;;;;11.68;4.53;;;;;;;14.54;100.00;101511.84;6099031;19;20466;-70
2023/08/05 05:01:01;;;;;;;11.02;4.68;;;;;;;14.60;100.00;101511.53;6072038;19;20078;-71
2023/08/05 05:03:20;;;;;;;12.27;4.72;;;;;;;14.60;100.00;101512.38;6096449;19;20393;-70
2023/08/05 05:05:25;;;;;;;11.77;4.75;;;;;;;14.59;100.00;101515.97;6097081;19;20499;-69
2023/08/05 05:07:34;;;;;;;13.05;4.60;;;;;;;14.57;100.00;101506.38;6061422;19;20463;-69
2023/08/05 05:09:38;;;;;;;8.73;4.28;;;;;;;14.60;100.00;101504.44;6097285;19;20011;-71
2023/08/05 05:11:43;;;;;;;11.32;4.18;;;;;;;14.67;100.00;101499.75;6091322;19;20078;-71
2023/08/05 05:13:52;;;;;;;14.48;4.57;;;;;;;14.62;100.00;101505.25;6096337;19;20078;-70
2023/08/05 05:15:59;;;;;;;8.50;4.30;;;;;;;14.66;100.00;101503.31;6062660;19;20013;-70
2023/08/05 05:18:04;;;;;;;8.65;4.25;;;;;;;14.62;100.00;101492.03;6096506;19;20002;-71
2023/08/05 05:20:13;;;;;;;10.63;4.63;;;;;;;14.63;100.00;101491.06;6096078;19;20416;-71
2023/08/05 05:22:19;;;;;;;8.50;4.05;;;;;;;14.70;100.00;101484.56;6096077;19;20014;-70
2023/08/05 05:24:24;;;;;;;7.78;3.55;;;;;;;14.74;100.00;101482.63;6099147;19;20015;-70
2023/08/05 05:26:29;;;;;;;9.30;4.38;;;;;;;14.74;100.00;101484.44;6084920;19;20664;-70
2023/08/05 05:28:34;;;;;;;9.65;4.20;;;;;;;14.74;100.00;101490.56;6094382;19;20474;-69
2023/08/05 05:33:04;;;;;;;6.97;4.10;;;;;;;14.75;100.00;101476.44;6092448;19;20010;-70
2023/08/05 05:35:12;;;;;;;8.68;4.18;;;;;;;14.84;100.00;101477.75;6097490;19;20006;-71
2023/08/05 05:37:22;;;;;;;7.15;3.85;;;;;;;14.89;100.00;101467.81;6097152;19;20097;-71
2023/08/05 05:39:28;;;;;;;7.43;4.03;;;;;;;14.98;100.00;101466.50;6096401;19;20050;-70
2023/08/05 05:41:35;;;;;;;10.35;3.92;;;;;;;14.97;100.00;101464.81;6098961;19;20034;-70
2023/08/05 05:43:39;;;;;;;8.10;3.88;;;;;;;15.04;100.00;101463.56;6095461;19;20006;-72
2023/08/05 05:45:46;;;;;;;7.32;3.38;;;;;;;15.06;100.00;101459.91;6073238;19;20027;-69
2023/08/05 05:47:51;;;;;;;12.20;4.55;;;;;;;14.97;100.00;101460.34;6097142;19;20014;-70
2023/08/05 05:50:00;;;;;;;8.52;4.22;;;;;;;15.06;100.00;101462.56;6101637;19;20038;-71
2023/08/05 05:52:11;;;;;;;10.20;4.22;;;;;;;14.98;100.00;101463.84;6097402;19;20442;-69
2023/08/05 05:54:18;;;;;;;9.52;4.15;;;;;;;14.96;100.00;101463.09;6097591;19;20356;-71
2023/08/05 05:56:32;;;;;;;7.25;3.53;;;;;;;15.04;100.00;101460.94;6088835;19;20097;-70
2023/08/05 05:58:41;;;;;;;11.52;4.13;;;;;;;14.91;100.00;101474.75;6097535;19;20021;-70
2023/08/05 06:00:46;;;;;;;7.85;3.97;;;;;;;14.92;100.00;101467.66;6090795;19;20369;-71
2023/08/05 06:02:51;;;;;;;7.97;3.95;;;;;;;14.93;100.00;101464.09;6095695;19;20006;-70
2023/08/05 06:04:56;;;;;;;6.82;4.30;;;;;;;14.96;100.00;101463.94;6096426;19;20010;-69
2023/08/05 06:07:14;;;;;;;6.53;3.33;;;;;;;15.02;100.00;101463.63;6098673;19;20728;-69
2023/08/05 06:09:20;;;;;;;9.45;3.95;;;;;;;15.04;100.00;101463.56;6089405;19;20014;-69
2023/08/05 06:11:22;;;;;;;7.50;3.78;;;;;;;15.13;100.00;101463.09;6076406;19;20018;-70
2023/08/05 06:13:27;;;;;;;9.48;3.90;;;;;;;15.23;100.00;101459.06;6098700;19;20014;-70
2023/08/05 06:15:33;;;;;;;8.88;3.90;;;;;;;15.36;100.00;101462.81;6093917;19;20006;-71
2023/08/05 06:17:39;;;;;;;9.95;3.90;;;;;;;15.56;100.00;101469.75;6092383;19;20124;-71
2023/08/05 06:19:44;;;;;;;9.35;3.97;;;;;;;15.78;100.00;101461.56;6098764;19;20101;-69
2023/08/05 06:21:51;;;;;;;9.20;4.75;;;;;;;15.75;100.00;101452.94;6094949;19;20089;-69
2023/08/05 06:23:59;;;;;;;10.55;4.40;;;;;;;15.96;98.82;101443.00;6099946;19;20010;-69
2023/08/05 06:26:04;;;;;;;9.65;3.90;;;;;;;16.41;97.75;101439.63;6096724;19;20051;-69
2023/08/05 06:28:12;;;;;;;8.95;4.55;;;;;;;16.57;96.13;101442.28;6096360;19;20006;-69
2023/08/05 06:30:17;;;;;;;10.30;4.85;;;;;;;16.70;94.86;101438.94;6096933;19;20461;-69
2023/08/05 06:32:22;;;;;;;10.70;4.57;;;;;;;16.88;93.44;101437.94;6096577;19;20014;-69
2023/08/05 06:34:28;;;;;;;10.32;5.20;;;;;;;16.58;93.71;101449.28;6092282;19;20423;-69
2023/08/05 06:36:33;;;;;;;10.27;4.57;;;;;;;16.75;94.04;101444.84;6091596;19;20320;-69
2023/08/05 06:38:38;;;;;;;13.48;5.50;;;;;;;16.87;92.68;101438.84;6092984;19;20386;-70
2023/08/05 06:40:46;;;;;;;11.57;6.60;;;;;;;16.99;91.50;101434.66;6092997;19;20011;-70
2023/08/05 06:42:52;;;;;;;11.57;6.40;;;;;;;17.02;89.75;101435.31;6091968;19;20125;-70
2023/08/05 06:44:58;;;;;;;12.55;6.10;;;;;;;17.39;87.95;101429.66;6084292;19;20015;-69
2023/08/05 06:47:04;;;;;;;12.27;5.90;;;;;;;17.15;89.03;101431.97;6096191;19;20474;-70
2023/08/05 06:49:09;;;;;;;13.00;5.68;;;;;;;17.15;88.67;101414.22;6094395;19;20089;-70
2023/08/05 06:51:14;;;;;;;13.77;6.03;;;;;;;17.37;89.32;101413.78;6088921;19;20022;-69
2023/08/05 06:53:23;;;;;;;12.13;4.95;;;;;;;17.37;88.04;101412.94;6091795;19;20036;-69
2023/08/05 06:55:32;;;;;;;11.93;4.93;;;;;;;17.58;87.28;101405.47;6078408;19;20035;-70
2023/08/05 06:57:45;;;;;;;12.85;5.82;;;;;;;17.58;85.61;101413.44;6103862;19;20042;-69
2023/08/05 06:59:50;;;;;;;10.73;5.10;;;;;;;17.67;83.71;101408.44;6102154;19;20641;-71
2023/08/05 07:01:57;;;;;;;8.65;4.93;;;;;;;17.41;85.59;101404.69;6102988;19;20403;-70
2023/08/05 07:04:02;;;;;;;11.63;4.80;;;;;;;17.47;84.90;101396.34;6103611;19;20024;-71
2023/08/05 07:06:07;;;;;;;12.25;5.32;;;;;;;17.11;86.21;101399.41;6104347;19;20013;-70
2023/08/05 07:08:12;;;;;;;11.73;4.90;;;;;;;17.35;86.95;101391.78;6096728;19;20034;-69
2023/08/05 07:10:17;;;;;;;9.40;4.82;;;;;;;17.41;85.24;101401.19;6100997;19;20014;-70
2023/08/05 07:12:22;;;;;;;9.23;5.15;;;;;;;17.26;83.84;101390.53;6103624;19;20294;-70
2023/08/05 07:14:31;;;;;;;10.35;4.07;;;;;;;17.34;84.71;101390.06;6103000;19;20009;-71
2023/08/05 07:16:35;;;;;;;9.32;4.20;;;;;;;17.35;84.25;101391.78;6102801;19;20013;-71
2023/08/05 07:18:43;;;;;;;10.15;4.30;;;;;;;17.50;83.34;101397.97;6104607;19;20465;-71
2023/08/05 07:20:55;;;;;;;9.13;4.28;;;;;;;17.43;83.97;101389.53;6102967;19;20060;-72
2023/08/05 07:23:07;;;;;;;10.93;4.80;;;;;;;17.55;82.71;101386.09;6082049;19;20082;-70
2023/08/05 07:25:14;;;;;;;8.82;4.60;;;;;;;17.66;82.38;101379.28;6091115;19;20513;-71
2023/08/05 07:27:33;;;;;;;9.40;4.45;;;;;;;17.62;82.63;101378.63;6102059;19;20011;-71
2023/08/05 07:29:50;;;;;;;6.97;3.90;;;;;;;17.48;83.22;101371.50;6101662;19;20022;-71
2023/08/05 07:31:57;;;;;;;9.88;4.28;;;;;;;17.50;83.57;101369.59;6103426;19;20034;-71
2023/08/05 07:34:12;;;;;;;10.63;4.82;;;;;;;17.52;84.64;101373.00;6100117;19;20026;-70
2023/08/05 07:36:22;;;;;;;10.23;5.45;;;;;;;17.55;83.58;101367.50;6077999;19;20006;-69
2023/08/05 07:38:29;;;;;;;10.68;5.15;;;;;;;17.74;82.71;101374.34;6092320;19;20003;-70
2023/08/05 07:40:36;;;;;;;8.55;4.70;;;;;;;17.69;82.20;101364.03;6101597;19;20470;-69
2023/08/05 07:42:42;;;;;;;12.30;5.20;;;;;;;17.53;81.86;101369.41;6094574;19;20023;-69
2023/08/05 07:44:52;;;;;;;13.65;5.40;;;;;;;17.71;81.46;101364.75;6081049;19;20557;-72
2023/08/05 07:46:59;;;;;;;8.85;4.38;;;;;;;18.15;81.10;101363.78;6085942;19;20099;-69
2023/08/05 07:49:14;;;;;;;9.20;4.70;;;;;;;18.85;79.75;101358.38;6100180;19;25596;-70
2023/08/05 07:51:23;;;;;;;13.43;4.88;;;;;;;19.02;77.32;101351.88;6097823;19;20082;-69
2023/08/05 07:53:37;;;;;;;8.15;5.20;;;;;;;18.80;77.16;101352.50;6080766;19;20014;-71
2023/08/05 07:55:42;;;;;;;8.90;4.55;;;;;;;18.40;77.74;101344.44;6100487;19;20536;-69
2023/08/05 07:57:51;;;;;;;9.35;4.20;;;;;;;18.46;78.75;101342.31;6099161;19;20016;-69
2023/08/05 08:00:00;;;;;;;8.40;4.50;;;;;;;18.89;76.82;101342.19;6090930;19;20002;-70
2023/08/05 08:02:10;;;;;;;7.18;3.78;;;;;;;19.17;75.66;101344.66;6098677;19;20543;-69
2023/08/05 08:04:15;;;;;;;9.32;4.07;;;;;;;18.60;76.83;101335.13;6093100;19;20039;-69
2023/08/05 08:06:21;;;;;;;9.95;3.92;;;;;;;19.03;76.12;101339.41;6094262;19;20006;-71
2023/08/05 08:08:29;;;;;;;7.63;3.92;;;;;;;19.37;75.15;101326.44;6094540;19;20491;-71
2023/08/05 08:10:55;;;;;;;9.75;4.43;;;;;;;19.10;76.31;101326.53;6092770;19;20368;-70
2023/08/05 08:13:19;;;;;;;6.65;3.38;;;;;;;19.19;75.59;101320.56;6068835;19;20014;-71
2023/08/05 08:15:29;;;;;;;10.85;4.00;;;;;;;19.20;75.34;101317.81;6099483;19;20031;-69
2023/08/05 08:17:34;;;;;;;8.13;4.50;;;;;;;18.78;76.40;101327.78;6097370;19;20440;-70
2023/08/05 08:19:42;;;;;;;7.63;3.53;;;;;;;18.51;77.64;101314.47;6101511;19;20003;-71
2023/08/05 08:21:47;;;;;;;8.55;4.40;;;;;;;18.42;77.67;101320.38;6099749;19;20010;-69
2023/08/05 08:23:54;;;;;;;8.48;4.07;;;;;;;18.19;78.71;101314.78;6100320;19;20013;-70
2023/08/05 08:26:00;;;;;;;8.40;4.10;;;;;;;18.32;78.67;101313.97;6091255;19;20019;-70
2023/08/05 08:28:06;;;;;;;12.48;4.63;;;;;;;18.43;77.99;101319.41;6094443;19;20492;-70
2023/08/05 08:30:12;;;;;;;13.20;5.32;;;;;;;18.52;78.95;101310.84;6100435;19;20069;-70
2023/08/05 08:32:23;;;;;;;11.38;5.10;;;;;;;18.29;78.91;101301.72;6099672;19;20010;-70
2023/08/05 08:34:28;;;;;;;11.02;6.18;;;;;;;18.40;78.67;101301.88;6094689;19;20094;-70
2023/08/05 08:36:33;;;;;;;10.98;5.03;;;;;;;18.69;78.75;101291.06;6095871;19;20544;-70
2023/08/05 08:38:40;;;;;;;12.43;5.75;;;;;;;18.63;76.96;101286.16;6097424;19;20010;-69
2023/08/05 08:40:49;;;;;;;14.23;6.20;;;;;;;18.41;77.75;101287.59;6081617;19;20013;-70
2023/08/05 08:43:00;;;;;;;13.45;5.88;;;;;;;18.42;78.40;101286.63;6090380;19;20011;-70
2023/08/05 08:45:26;;;;;;;11.07;5.68;;;;;;;18.83;78.31;101282.19;6097532;19;20839;-71
2023/08/05 08:47:43;;;;;;;13.55;5.18;;;;;;;18.69;77.78;101277.75;6066798;19;20055;-72
2023/08/05 08:49:51;;;;;;;10.88;5.43;;;;;;;18.97;76.81;101273.25;6100509;19;20085;-71
2023/08/05 08:52:02;;;;;;;14.23;5.90;;;;;;;18.86;76.58;101266.00;6083184;19;20006;-71
2023/08/05 08:54:20;;;;;;;12.07;5.63;;;;;;;18.69;77.34;101268.94;6067396;19;20073;-71
2023/08/05 08:56:31;;;;;;;12.23;5.93;;;;;;;18.25;78.56;101262.97;6065241;19;20713;-71
2023/08/05 08:58:37;;;;;;;10.02;4.90;;;;;;;18.35;78.21;101261.41;6098019;19;20019;-71
2023/08/05 09:00:42;;;;;;;9.02;5.15;;;;;;;18.36;79.03;101265.78;6091359;19;20010;-70
2023/08/05 09:02:53;;;;;;;10.93;5.68;;;;;;;18.43;77.55;101272.41;6096388;19;20018;-71
2023/08/05 09:04:59;;;;;;;10.80;5.32;;;;;;;18.28;78.51;101259.25;6096055;19;20007;-71
2023/08/05 09:07:13;;;;;;;10.90;5.55;;;;;;;18.28;77.20;101268.09;6096788;19;20014;-70
2023/08/05 09:09:33;;;;;;;11.93;5.65;;;;;;;18.27;78.61;101262.84;6098700;19;20028;-71
2023/08/05 09:11:47;;;;;;;11.00;5.55;;;;;;;18.13;79.43;101255.78;6093812;19;20427;-69
2023/08/05 09:13:55;;;;;;;11.82;5.13;;;;;;;18.14;79.05;101250.38;6073906;19;20034;-71
2023/08/05 09:16:00;;;;;;;11.45;5.07;;;;;;;18.29;78.00;101251.16;6041041;19;20063;-71
2023/08/05 09:18:14;;;;;;;9.27;4.78;;;;;;;18.35;77.17;101240.13;6093735;19;20389;-70
2023/08/05 09:20:27;;;;;;;9.15;3.95;;;;;;;18.55;77.05;101240.59;6098063;19;20539;-71
2023/08/05 09:22:35;;;;;;;7.90;4.22;;;;;;;18.16;75.78;101234.31;6098638;19;20120;-73
2023/08/05 09:24:52;;;;;;;8.57;4.93;;;;;;;18.10;77.09;101232.91;6100910;19;20038;-70
2023/08/05 09:27:01;;;;;;;10.57;5.57;;;;;;;18.13;77.33;101229.19;6087074;19;20369;-70
2023/08/05 09:29:10;;;;;;;10.15;4.28;;;;;;;18.16;77.09;101226.31;6102259;19;20007;-69
2023/08/05 09:31:17;;;;;;;7.88;4.03;;;;;;;18.55;76.04;101214.81;6103946;19;21111;-70
2023/08/05 09:33:30;;;;;;;9.20;4.60;;;;;;;18.52;74.75;101216.84;6102934;19;20261;-72
2023/08/05 09:35:35;;;;;;;10.60;4.28;;;;;;;18.60;75.40;101217.19;6102783;19;20086;-73
2023/08/05 09:38:15;;;;;;;9.77;3.75;;;;;;;19.02;74.52;101215.19;6054422;19;20679;-72
2023/08/05 09:40:22;;;;;;;8.38;4.00;;;;;;;18.78;74.32;101213.28;6102678;19;20035;-71
2023/08/05 09:42:28;;;;;;;10.23;4.35;;;;;;;18.51;75.04;101223.97;6102601;19;20360;-71
2023/08/05 09:44:37;;;;;;;8.00;3.70;;;;;;;18.62;74.65;101215.28;6104889;19;20086;-72
2023/08/05 09:47:04;;;;;;;8.90;4.00;;;;;;;18.68;73.99;101214.00;6099897;19;20006;-72